createdAt,value
2018-10-21T00:00:35.524Z,47.50
2018-10-21T00:03:03.167Z,49.90
2018-10-21T00:05:30.731Z,51.67
2018-10-21T00:07:58.167Z,51.20
2018-10-21T00:10:25.759Z,53.53
2018-10-21T00:12:53.204Z,57.73
2018-10-21T00:15:20.714Z,56.10
2018-10-21T00:17:48.470Z,51.13
2018-10-21T00:20:16.043Z,51.37
2018-10-21T00:22:43.494Z,51.70
2018-10-21T00:25:11.616Z,54.03
2018-10-21T00:27:39.095Z,53.67
2018-10-21T00:30:06.824Z,52.03
2018-10-21T00:32:40.126Z,50.47
2018-10-21T00:35:08.097Z,51.53
2018-10-21T00:37:35.608Z,56.60
2018-10-21T00:40:03.387Z,47.60
2018-10-21T00:42:30.863Z,57.67
2018-10-21T00:44:58.492Z,50.33
2018-10-21T00:47:26.496Z,46.43
2018-10-21T00:49:53.936Z,53.80
2018-10-21T00:52:21.387Z,53.17
2018-10-21T00:54:48.931Z,61.87
2018-10-21T00:57:16.456Z,58.23
2018-10-21T00:59:44.015Z,52.33
2018-10-21T01:02:11.629Z,54.73
2018-10-21T01:04:39.112Z,61.03
2018-10-21T01:07:06.632Z,59.43
2018-10-21T01:09:34.124Z,57.33
2018-10-21T01:12:01.577Z,58.63
2018-10-21T01:14:29.096Z,52.43
2018-10-21T01:16:56.580Z,56.30
2018-10-21T01:19:24.056Z,56.10
2018-10-21T01:21:51.552Z,61.70
2018-10-21T01:24:19.037Z,59.27
2018-10-21T01:26:46.516Z,49.77
2018-10-21T01:29:14.043Z,56.67
2018-10-21T01:31:41.556Z,57.93
2018-10-21T01:34:09.008Z,55.23
2018-10-21T01:36:36.573Z,56.57
2018-10-21T01:39:07.718Z,60.83
2018-10-21T01:41:35.207Z,63.70
2018-10-21T01:44:02.731Z,62.43
2018-10-21T01:46:30.175Z,67.13
2018-10-21T01:48:57.697Z,85.13
2018-10-21T01:51:25.147Z,66.40
2018-10-21T01:53:52.704Z,74.43
2018-10-21T01:56:20.155Z,73.40
2018-10-21T01:58:47.697Z,75.27
2018-10-21T02:01:43.949Z,67.30
2018-10-21T02:04:11.672Z,58.70
2018-10-21T02:06:39.215Z,67.50
2018-10-21T02:09:06.742Z,74.43
2018-10-21T02:11:34.263Z,70.60
2018-10-21T02:14:01.828Z,60.53
2018-10-21T02:16:29.285Z,54.70
2018-10-21T02:18:56.778Z,73.53
2018-10-21T02:21:24.223Z,73.47
2018-10-21T02:23:51.715Z,70.63
2018-10-21T02:26:19.381Z,73.20
2018-10-21T02:28:46.833Z,64.63
2018-10-21T02:31:14.383Z,62.03
2018-10-21T02:33:42.212Z,78.03
2018-10-21T02:36:09.566Z,55.73
2018-10-21T02:38:37.021Z,65.43
2018-10-21T02:41:40.768Z,70.40
2018-10-21T02:44:11.471Z,79.67
2018-10-21T02:46:40.400Z,75.60
2018-10-21T02:49:08.739Z,85.30
2018-10-21T02:51:36.302Z,68.37
2018-10-21T02:54:05.032Z,72.20
2018-10-21T02:56:32.569Z,73.83
2018-10-21T02:59:00.102Z,76.77
2018-10-21T03:01:27.658Z,84.63
2018-10-21T03:03:55.186Z,75.60
2018-10-21T03:06:22.847Z,82.40
2018-10-21T03:08:50.359Z,73.23
2018-10-21T03:11:17.999Z,73.13
2018-10-21T03:13:45.598Z,70.83
2018-10-21T03:16:13.146Z,75.13
2018-10-21T03:18:40.624Z,82.37
2018-10-21T03:21:08.395Z,84.07
2018-10-21T03:23:36.013Z,80.33
2018-10-21T03:26:03.682Z,69.97
2018-10-21T03:28:31.601Z,72.97
2018-10-21T03:30:59.613Z,69.90
2018-10-21T03:33:27.475Z,74.70
2018-10-21T03:35:54.719Z,74.53
2018-10-21T03:38:22.241Z,66.00
2018-10-21T03:40:49.799Z,84.90
2018-10-21T03:43:17.316Z,83.07
2018-10-21T03:45:44.848Z,80.80
2018-10-21T03:48:12.473Z,81.80
2018-10-21T03:50:40.102Z,74.20
2018-10-21T03:53:07.692Z,63.07
2018-10-21T03:55:36.655Z,73.47
2018-10-21T03:58:04.944Z,85.20
2018-10-21T04:00:32.526Z,52.30
2018-10-21T04:03:00.592Z,55.80
2018-10-21T04:05:28.067Z,64.87
2018-10-21T04:07:55.640Z,60.23
2018-10-21T04:10:23.100Z,59.67
2018-10-21T04:12:50.694Z,64.97
2018-10-21T04:15:18.204Z,60.50
2018-10-21T04:17:45.700Z,63.00
2018-10-21T04:20:13.268Z,66.30
2018-10-21T04:22:47.343Z,62.43
2018-10-21T04:25:15.042Z,63.30
2018-10-21T04:27:42.608Z,68.10
2018-10-21T04:30:11.152Z,66.60
2018-10-21T04:32:42.136Z,62.33
2018-10-21T04:35:09.644Z,66.60
2018-10-21T04:38:50.331Z,65.23
2018-10-21T04:41:17.821Z,68.97
2018-10-21T04:43:45.455Z,79.60
2018-10-21T04:46:13.101Z,84.40
2018-10-21T04:48:40.531Z,75.83
2018-10-21T04:51:08.025Z,70.47
2018-10-21T04:53:35.618Z,74.60
2018-10-21T04:56:03.184Z,79.90
2018-10-21T04:58:30.647Z,74.90
2018-10-21T05:00:58.213Z,78.80
2018-10-21T05:03:25.784Z,79.83
2018-10-21T05:05:53.363Z,73.20
2018-10-21T05:08:20.989Z,79.63
2018-10-21T05:10:48.487Z,75.40
2018-10-21T05:13:16.015Z,62.03
2018-10-21T05:15:43.565Z,68.53
2018-10-21T05:18:11.027Z,63.83
2018-10-21T05:20:38.584Z,75.07
2018-10-21T05:23:06.100Z,75.57
2018-10-21T05:25:33.582Z,74.80
2018-10-21T05:28:01.157Z,71.10
2018-10-21T05:30:28.659Z,82.93
2018-10-21T05:32:56.123Z,66.13
2018-10-21T05:35:23.628Z,80.43
2018-10-21T05:37:51.149Z,62.93
2018-10-21T05:40:20.083Z,67.17
2018-10-21T05:42:48.085Z,68.33
2018-10-21T05:45:15.579Z,71.63
2018-10-21T05:47:43.140Z,69.50
2018-10-21T05:50:11.720Z,69.67
2018-10-21T05:52:39.618Z,72.47
2018-10-21T05:55:07.401Z,70.03
2018-10-21T05:57:34.852Z,75.33
2018-10-21T06:00:03.013Z,78.83
2018-10-21T06:02:30.677Z,77.03
2018-10-21T06:04:58.199Z,69.23
2018-10-21T06:07:25.732Z,73.47
2018-10-21T06:09:53.283Z,74.37
2018-10-21T06:12:20.808Z,78.67
2018-10-21T06:14:49.387Z,71.20
2018-10-21T06:17:20.395Z,88.80
2018-10-21T06:19:51.798Z,69.27
2018-10-21T06:22:19.586Z,76.77
2018-10-21T06:24:47.109Z,73.23
2018-10-21T06:27:14.784Z,74.87
2018-10-21T06:29:42.330Z,77.23
2018-10-21T06:32:09.910Z,75.23
2018-10-21T06:34:37.548Z,78.43
2018-10-21T06:37:05.397Z,79.63
2018-10-21T06:39:32.941Z,78.90
2018-10-21T06:42:00.480Z,74.73
2018-10-21T06:44:27.972Z,70.30
2018-10-21T06:46:55.520Z,75.03
2018-10-21T06:49:23.016Z,74.70
2018-10-21T06:51:50.708Z,70.53
2018-10-21T06:54:18.265Z,83.67
2018-10-21T06:56:45.871Z,74.87
2018-10-21T06:59:13.289Z,79.43
2018-10-21T07:01:40.802Z,86.07
2018-10-21T07:04:08.300Z,46.57
2018-10-21T07:06:35.857Z,72.10
2018-10-21T07:09:05.222Z,57.27
2018-10-21T07:11:32.744Z,70.20
2018-10-21T07:14:00.208Z,69.30
2018-10-21T07:16:27.731Z,49.57
2018-10-21T07:18:55.124Z,65.23
2018-10-21T07:21:22.697Z,78.13
2018-10-21T07:23:50.358Z,70.80
2018-10-21T07:26:17.971Z,71.80
2018-10-21T07:28:45.579Z,44.50
2018-10-21T07:31:13.148Z,60.77
2018-10-21T07:33:40.788Z,59.93
2018-10-21T07:36:08.504Z,66.80
2018-10-21T07:38:36.005Z,68.13
2018-10-21T07:41:03.636Z,63.90
2018-10-21T07:43:31.266Z,69.73
2018-10-21T07:45:58.855Z,64.53
2018-10-21T07:48:26.302Z,72.03
2018-10-21T07:50:53.832Z,69.33
2018-10-21T07:53:21.428Z,67.83
2018-10-21T07:55:49.618Z,68.93
2018-10-21T07:58:17.165Z,74.83
2018-10-21T08:00:44.720Z,67.00
2018-10-21T08:03:12.298Z,71.63
2018-10-21T08:05:51.452Z,68.50
2018-10-21T08:08:20.076Z,71.63
2018-10-21T08:10:47.554Z,63.07
2018-10-21T08:13:17.298Z,75.17
2018-10-21T08:15:45.113Z,66.03
2018-10-21T08:18:13.402Z,66.17
2018-10-21T08:20:42.558Z,65.43
2018-10-21T08:23:11.403Z,57.80
2018-10-21T08:25:39.172Z,64.40
2018-10-21T08:28:06.769Z,50.10
2018-10-21T08:30:34.604Z,61.50
2018-10-21T08:33:02.749Z,59.30
2018-10-21T08:35:30.296Z,59.70
2018-10-21T08:37:57.731Z,67.90
2018-10-21T08:40:25.244Z,64.70
2018-10-21T08:42:52.891Z,58.20
2018-10-21T08:45:20.485Z,58.50
2018-10-21T08:47:47.924Z,62.10
2018-10-21T08:50:15.487Z,57.73
2018-10-21T08:52:43.043Z,58.00
2018-10-21T08:55:11.364Z,61.70
2018-10-21T08:57:39.290Z,56.80
2018-10-21T09:00:10.136Z,60.97
2018-10-21T09:02:37.755Z,59.57
2018-10-21T09:05:07.289Z,58.00
2018-10-21T09:07:34.719Z,56.57
2018-10-21T09:10:02.277Z,55.40
2018-10-21T09:12:29.727Z,57.33
2018-10-21T09:14:57.272Z,53.17
2018-10-21T09:17:24.801Z,54.57
2018-10-21T09:19:52.355Z,50.70
2018-10-21T09:22:19.856Z,49.27
2018-10-21T09:24:47.233Z,48.23
2018-10-21T09:27:14.740Z,51.90
2018-10-21T09:29:42.263Z,55.00
2018-10-21T09:32:09.766Z,51.97
2018-10-21T09:34:37.209Z,49.80
2018-10-21T09:37:05.095Z,50.07
2018-10-21T09:39:32.639Z,47.30
2018-10-21T09:42:00.849Z,44.00
2018-10-21T09:44:28.336Z,50.17
2018-10-21T09:46:55.792Z,48.30
2018-10-21T09:49:23.316Z,46.10
2018-10-21T09:51:50.811Z,48.17
2018-10-21T09:54:18.302Z,47.73
2018-10-21T09:56:45.905Z,44.93
2018-10-21T09:59:13.331Z,46.03
2018-10-21T10:01:46.486Z,42.70
2018-10-21T10:04:13.995Z,41.73
2018-10-21T10:06:41.684Z,43.73
2018-10-21T10:09:11.262Z,44.10
2018-10-21T10:11:38.752Z,43.43
2018-10-21T10:14:07.284Z,42.37
2018-10-21T10:16:34.739Z,40.80
2018-10-21T10:19:02.327Z,37.80
2018-10-21T10:21:29.803Z,41.70
2018-10-21T10:23:57.350Z,39.67
2018-10-21T10:26:24.943Z,37.77
2018-10-21T10:28:52.430Z,39.40
2018-10-21T10:31:19.923Z,37.07
2018-10-21T10:33:47.466Z,35.97
2018-10-21T10:36:15.097Z,35.27
2018-10-21T10:38:42.568Z,35.63
2018-10-21T10:41:10.333Z,35.43
2018-10-21T10:43:38.138Z,37.03
2018-10-21T10:46:05.749Z,34.57
2018-10-21T10:48:33.127Z,32.93
2018-10-21T10:51:00.598Z,33.30
2018-10-21T10:53:28.351Z,30.30
2018-10-21T10:55:56.005Z,33.57
2018-10-21T10:58:23.469Z,32.70
2018-10-21T11:00:51.028Z,29.27
2018-10-21T11:03:18.499Z,32.53
2018-10-21T11:05:46.067Z,27.23
2018-10-21T11:08:13.561Z,28.03
2018-10-21T11:10:41.175Z,28.10
2018-10-21T11:13:08.902Z,26.40
2018-10-21T11:15:36.331Z,26.80
2018-10-21T11:18:04.090Z,25.73
2018-10-21T11:20:31.798Z,23.80
2018-10-21T11:22:59.348Z,25.27
2018-10-21T11:25:26.831Z,26.80
2018-10-21T11:27:54.461Z,23.97
2018-10-21T11:30:22.087Z,22.33
2018-10-21T11:32:49.576Z,19.30
2018-10-21T11:35:17.086Z,20.97
2018-10-21T11:37:44.712Z,23.77
2018-10-21T11:40:12.328Z,23.23
2018-10-21T11:42:40.001Z,20.93
2018-10-21T11:45:07.525Z,23.73
2018-10-21T11:47:35.019Z,21.43
2018-10-21T11:50:02.677Z,20.73
2018-10-21T11:52:30.521Z,20.23
2018-10-21T11:54:58.351Z,21.07
2018-10-21T11:57:25.879Z,20.07
2018-10-21T11:59:53.371Z,21.23
2018-10-21T12:02:21.200Z,20.80
2018-10-21T12:04:48.791Z,19.50
2018-10-21T12:07:16.794Z,19.80
2018-10-21T12:09:44.585Z,18.27
2018-10-21T12:12:12.430Z,19.23
2018-10-21T12:14:40.022Z,19.30
2018-10-21T12:17:07.585Z,18.87
2018-10-21T12:19:35.172Z,19.27
2018-10-21T12:22:02.940Z,21.03
2018-10-21T12:24:30.686Z,19.03
2018-10-21T12:26:58.267Z,19.13
2018-10-21T12:29:25.822Z,21.07
2018-10-21T12:31:53.346Z,18.30
2018-10-21T12:34:20.972Z,18.53
2018-10-21T12:36:48.499Z,18.17
2018-10-21T12:39:16.145Z,19.80
2018-10-21T12:41:43.895Z,19.77
2018-10-21T12:44:11.441Z,18.50
2018-10-21T12:46:39.541Z,19.33
2018-10-21T12:49:07.348Z,19.33
2018-10-21T12:51:35.279Z,22.20
2018-10-21T12:54:03.100Z,21.53
2018-10-21T12:56:30.686Z,22.03
2018-10-21T12:58:58.576Z,19.00
2018-10-21T13:01:26.371Z,16.00
2018-10-21T13:03:53.859Z,13.90
2018-10-21T13:06:21.559Z,15.80
2018-10-21T13:08:49.331Z,15.23
2018-10-21T13:11:17.074Z,14.40
2018-10-21T13:13:44.622Z,16.33
2018-10-21T13:16:12.217Z,16.90
2018-10-21T13:18:39.815Z,14.50
2018-10-21T13:21:07.517Z,14.23
2018-10-21T13:23:35.575Z,15.87
2018-10-21T13:26:03.330Z,15.50
2018-10-21T13:28:31.085Z,11.60
2018-10-21T13:30:58.967Z,13.10
2018-10-21T13:33:26.593Z,15.93
2018-10-21T13:35:54.134Z,16.77
2018-10-21T13:38:21.762Z,14.23
2018-10-21T13:40:49.351Z,15.63
2018-10-21T13:43:17.896Z,15.53
2018-10-21T13:45:45.317Z,15.73
2018-10-21T13:48:12.860Z,17.03
2018-10-21T13:50:40.400Z,17.80
2018-10-21T13:53:07.969Z,18.70
2018-10-21T13:55:35.507Z,18.83
2018-10-21T13:58:03.079Z,19.17
2018-10-21T14:00:31.733Z,18.53
2018-10-21T14:02:59.144Z,17.30
2018-10-21T14:05:26.600Z,20.20
2018-10-21T14:07:54.216Z,21.00
2018-10-21T14:10:22.088Z,19.00
2018-10-21T14:12:49.735Z,18.67
2018-10-21T14:15:17.358Z,19.37
2018-10-21T14:17:44.836Z,20.30
2018-10-21T14:20:12.570Z,19.47
2018-10-21T14:22:40.165Z,19.30
2018-10-21T14:25:07.806Z,18.00
2018-10-21T14:27:35.992Z,18.37
2018-10-21T14:30:04.825Z,18.93
2018-10-21T14:32:32.464Z,18.80
2018-10-21T14:35:00.068Z,18.50
2018-10-21T14:37:27.523Z,17.63
2018-10-21T14:39:55.092Z,18.30
2018-10-21T14:42:22.657Z,18.63
2018-10-21T14:44:50.384Z,19.27
2018-10-21T14:47:17.928Z,17.97
2018-10-21T14:49:45.421Z,17.43
2018-10-21T14:52:13.349Z,18.37
2018-10-21T14:54:40.868Z,18.37
2018-10-21T14:57:09.378Z,16.43
2018-10-21T14:59:36.864Z,17.07
2018-10-21T15:02:04.686Z,16.10
2018-10-21T15:04:32.296Z,16.80
2018-10-21T15:06:59.864Z,17.93
2018-10-21T15:09:27.821Z,20.90
2018-10-21T15:11:55.362Z,20.60
2018-10-21T15:14:23.019Z,20.00
2018-10-21T15:16:50.647Z,20.10
2018-10-21T15:19:18.150Z,19.63
2018-10-21T15:21:45.785Z,18.93
2018-10-21T15:24:13.245Z,21.80
2018-10-21T15:26:40.797Z,21.40
2018-10-21T15:29:08.706Z,21.87
2018-10-21T15:31:36.232Z,20.23
2018-10-21T15:34:04.265Z,20.80
2018-10-21T15:36:31.701Z,19.20
2018-10-21T15:38:59.231Z,21.90
2018-10-21T15:41:26.672Z,20.53
2018-10-21T15:43:54.165Z,21.57
2018-10-21T15:46:21.774Z,21.10
2018-10-21T15:48:49.442Z,20.93
2018-10-21T15:51:17.344Z,21.60
2018-10-21T15:53:44.866Z,18.40
2018-10-21T15:56:12.650Z,17.83
2018-10-21T15:58:40.404Z,19.13
2018-10-21T16:01:08.019Z,20.23
2018-10-21T16:03:35.572Z,18.20
2018-10-21T16:06:03.437Z,17.20
2018-10-21T16:08:30.980Z,20.37
2018-10-21T16:10:58.460Z,18.33
2018-10-21T16:13:25.995Z,20.53
2018-10-21T16:15:53.625Z,16.97
2018-10-21T16:18:21.056Z,20.07
2018-10-21T16:20:48.519Z,18.30
2018-10-21T16:23:16.001Z,17.60
2018-10-21T16:25:43.597Z,17.80
2018-10-21T16:28:10.985Z,20.70
2018-10-21T16:30:38.608Z,19.33
2018-10-21T16:33:06.328Z,21.67
2018-10-21T16:35:33.836Z,19.70
2018-10-21T16:38:02.082Z,17.43
2018-10-21T16:40:29.512Z,18.60
2018-10-21T16:42:57.061Z,19.47
2018-10-21T16:45:24.703Z,21.87
2018-10-21T16:47:52.183Z,21.23
2018-10-21T16:50:19.606Z,20.13
2018-10-21T16:52:47.083Z,21.67
2018-10-21T16:55:15.412Z,18.33
2018-10-21T16:57:43.127Z,19.67
2018-10-21T17:00:13.292Z,20.50
2018-10-21T17:02:41.460Z,19.23
2018-10-21T17:05:09.442Z,20.10
2018-10-21T17:07:37.072Z,20.23
2018-10-21T17:10:05.439Z,22.77
2018-10-21T17:12:32.659Z,19.33
2018-10-21T17:15:00.173Z,19.30
2018-10-21T17:17:28.009Z,21.10
2018-10-21T17:19:56.026Z,21.37
2018-10-21T17:22:23.595Z,19.27
2018-10-21T17:24:51.705Z,21.70
2018-10-21T17:27:19.523Z,23.03
2018-10-21T17:29:47.038Z,22.10
2018-10-21T17:32:14.538Z,23.07
2018-10-21T17:34:42.451Z,24.13
2018-10-21T17:37:10.146Z,22.67
2018-10-21T17:39:37.556Z,23.50
2018-10-21T17:42:05.757Z,20.80
2018-10-21T17:44:34.083Z,22.57
2018-10-21T17:47:01.798Z,22.33
2018-10-21T17:49:29.301Z,22.67
2018-10-21T17:51:56.890Z,22.60
2018-10-21T17:54:26.183Z,22.07
2018-10-21T17:56:57.398Z,27.77
2018-10-21T17:59:25.355Z,25.57
2018-10-21T18:01:53.514Z,22.03
2018-10-21T18:04:21.484Z,22.57
2018-10-21T18:06:49.181Z,21.40
2018-10-21T18:09:20.250Z,23.20
2018-10-21T18:11:47.926Z,22.03
2018-10-21T18:14:15.421Z,21.57
2018-10-21T18:16:43.654Z,22.37
2018-10-21T18:19:11.625Z,25.77
2018-10-21T18:21:39.598Z,24.33
2018-10-21T18:24:07.237Z,25.37
2018-10-21T18:26:34.819Z,26.97
2018-10-21T18:29:02.335Z,22.20
2018-10-21T18:31:29.824Z,26.13
2018-10-21T18:33:57.319Z,21.67
2018-10-21T18:36:24.809Z,25.13
2018-10-21T18:38:52.602Z,24.20
2018-10-21T18:41:20.204Z,26.43
2018-10-21T18:43:48.248Z,22.67
2018-10-21T18:46:16.219Z,23.83
2018-10-21T18:48:44.077Z,23.27
2018-10-21T18:51:12.423Z,23.80
2018-10-21T18:53:40.210Z,22.10
2018-10-21T18:56:07.663Z,23.77
2018-10-21T18:58:35.351Z,25.17
2018-10-21T19:01:03.052Z,23.37
2018-10-21T19:03:30.638Z,23.27
2018-10-21T19:05:58.384Z,28.00
2018-10-21T19:08:25.920Z,23.97
2018-10-21T19:10:54.005Z,29.20
2018-10-21T19:13:21.680Z,24.73
2018-10-21T19:15:49.039Z,28.17
2018-10-21T19:18:16.876Z,24.67
2018-10-21T19:20:44.506Z,25.73
2018-10-21T19:23:12.704Z,21.80
2018-10-21T19:25:40.432Z,25.33
2018-10-21T19:28:11.734Z,23.47
2018-10-21T19:30:39.818Z,26.00
2018-10-21T19:33:07.491Z,28.47
2018-10-21T19:35:35.195Z,23.20
2018-10-21T19:38:02.770Z,31.13
2018-10-21T19:40:30.357Z,25.23
2018-10-21T19:42:58.104Z,28.33
2018-10-21T19:45:25.806Z,27.73
2018-10-21T19:47:53.911Z,30.30
2018-10-21T19:50:22.413Z,27.87
2018-10-21T19:52:49.967Z,26.00
2018-10-21T19:55:17.567Z,27.20
2018-10-21T19:57:44.987Z,29.90
2018-10-21T20:00:14.156Z,29.57
2018-10-21T20:02:42.375Z,26.93
2018-10-21T20:05:10.036Z,30.93
2018-10-21T20:07:37.643Z,30.77
2018-10-21T20:10:06.964Z,31.07
2018-10-21T20:12:34.855Z,29.77
2018-10-21T20:15:02.374Z,30.70
2018-10-21T20:17:30.006Z,35.27
2018-10-21T20:19:57.553Z,27.83
2018-10-21T20:22:25.064Z,32.03
2018-10-21T20:24:52.617Z,29.47
2018-10-21T20:27:20.160Z,30.97
2018-10-21T20:29:47.744Z,27.53
2018-10-21T20:32:15.227Z,29.50
2018-10-21T20:34:42.943Z,34.40
2018-10-21T20:37:10.419Z,32.63
2018-10-21T20:39:38.115Z,28.97
2018-10-21T20:42:05.876Z,31.53
2018-10-21T20:44:33.631Z,30.60
2018-10-21T20:47:01.209Z,30.90
2018-10-21T20:49:28.626Z,32.70
2018-10-21T20:51:56.169Z,32.53
2018-10-21T20:54:28.209Z,30.60
2018-10-21T20:56:55.973Z,30.43
2018-10-21T20:59:23.991Z,32.90
2018-10-21T21:01:51.492Z,28.17
2018-10-21T21:04:19.193Z,29.90
2018-10-21T21:06:46.855Z,29.03
2018-10-21T21:09:14.888Z,29.27
2018-10-21T21:11:42.342Z,30.67
2018-10-21T21:14:09.872Z,27.90
2018-10-21T21:16:37.379Z,27.60
2018-10-21T21:19:05.176Z,30.17
2018-10-21T21:21:32.666Z,32.03
2018-10-21T21:24:00.345Z,27.90
2018-10-21T21:26:27.908Z,36.23
2018-10-21T21:28:55.943Z,29.97
2018-10-21T21:31:24.071Z,31.03
2018-10-21T21:33:51.609Z,29.30
2018-10-21T21:36:19.268Z,34.50
2018-10-21T21:38:46.743Z,34.70
2018-10-21T21:41:14.706Z,31.70
2018-10-21T21:43:42.121Z,35.30
2018-10-21T21:46:09.738Z,30.23
2018-10-21T21:48:37.195Z,30.57
2018-10-21T21:51:04.743Z,33.60
2018-10-21T21:53:32.346Z,32.00
2018-10-21T21:55:59.806Z,57.97
2018-10-21T21:58:27.353Z,48.87
2018-10-21T22:00:54.706Z,35.23
2018-10-21T22:03:22.166Z,33.40
2018-10-21T22:05:49.663Z,31.47
2018-10-21T22:08:17.315Z,29.70
2018-10-21T22:10:44.721Z,32.23
2018-10-21T22:13:12.219Z,31.63
2018-10-21T22:15:39.676Z,34.40
2018-10-21T22:18:07.195Z,29.83
2018-10-21T22:20:34.659Z,30.10
2018-10-21T22:23:02.393Z,31.70
2018-10-21T22:25:29.888Z,31.27
2018-10-21T22:27:57.330Z,35.73
2018-10-21T22:30:24.805Z,28.17
2018-10-21T22:32:52.210Z,30.67
2018-10-21T22:35:19.852Z,30.17
2018-10-21T22:37:47.328Z,31.50
2018-10-21T22:40:14.926Z,28.50
2018-10-21T22:42:42.227Z,32.20
2018-10-21T22:45:10.044Z,28.93
2018-10-21T22:47:37.669Z,29.00
2018-10-21T22:50:06.871Z,27.97
2018-10-21T22:52:34.351Z,26.60
2018-10-21T22:55:01.709Z,28.93
2018-10-21T22:57:29.140Z,29.63
2018-10-21T22:59:56.591Z,30.80
2018-10-21T23:02:23.936Z,30.00
2018-10-21T23:04:51.314Z,30.40
2018-10-21T23:07:18.708Z,26.90
2018-10-21T23:09:46.089Z,27.00
2018-10-21T23:12:13.884Z,27.87
2018-10-21T23:14:41.261Z,32.30
2018-10-21T23:17:08.709Z,30.17
2018-10-21T23:19:41.969Z,29.07
2018-10-21T23:22:09.515Z,26.27
2018-10-21T23:24:37.769Z,33.07
2018-10-21T23:27:05.405Z,30.33
2018-10-21T23:29:33.028Z,26.53
2018-10-21T23:32:00.437Z,34.03
2018-10-21T23:37:02.201Z,36.00
2018-10-21T23:39:29.805Z,30.27
2018-10-21T23:41:58.058Z,33.07
2018-10-21T23:44:25.379Z,35.37
2018-10-21T23:46:52.741Z,29.47
2018-10-21T23:49:20.146Z,33.77
2018-10-21T23:51:47.637Z,33.17
2018-10-21T23:54:15.812Z,35.57
2018-10-21T23:56:43.153Z,33.93
2018-10-21T23:59:11.290Z,35.77
